PWSweather.com
Personal Weather Stations
Station Observations
IONTARIO88
Lincoln, ON L0R

Lincoln, ON L0R

Lat: 43.1763563, Lon: -79.4719525

Elevation: 297

Station Type: Davis Vantage Pro 2 Plus

http://www.beamsvillewx.ca

High Low Average
Temperature 49.9°F9.9°C 41.9°F5.5°C 44.5°F6.9°C
Dew Point 45.6°F7.6°C 40.6°F4.8°C 42.3°F5.7°C
Winds 10.4 mph 16.7 kmh Calm Calm 3.0 mph E4.8 kmh E
Wind Gusts 15.0 mph24.1 kmh -- 5.0 mph8.0 kmh
Humidity 96% 84% 92%
Pressure 30.14 in1020.7 mb 29.77 in1008.1 mb -
Precipitation 1.27 in32.3 mm - -
Hour Temp Dew Point Humidity Winds Wind Gusts Pressure Precip Precip Rate Daily Precip Total
12:00 AM 50.4°F10.2°C 46.1°F7.8°C 85% Calm Calm -- 30.09 in1019.0 mb - 0.00 in0.0 mm 0.00 in0.0 mm
12:10 AM 50.2°F10.1°C 45.9°F7.7°C 85% Calm Calm -- 30.09 in1019.0 mb - 0.00 in0.0 mm 0.00 in0.0 mm
12:20 AM 50.0°F10.0°C 46.0°F7.8°C 86% Calm Calm -- 30.09 in1019.0 mb - 0.00 in0.0 mm 0.00 in0.0 mm
12:30 AM 49.9°F9.9°C 45.9°F7.7°C 86% Calm Calm -- 30.10 in1019.3 mb - 0.00 in0.0 mm 0.00 in0.0 mm
12:40 AM 49.8°F9.9°C 45.8°F7.7°C 86% Calm Calm -- 30.10 in1019.3 mb - 0.00 in0.0 mm 0.00 in0.0 mm
12:50 AM 49.8°F9.9°C 45.5°F7.5°C 85% Calm Calm -- 30.10 in1019.3 mb - 0.00 in0.0 mm 0.00 in0.0 mm
01:00 AM 49.9°F9.9°C 45.6°F7.6°C 85% Calm Calm 2.3 mph3.7 kmh 30.10 in1019.3 mb - 0.00 in0.0 mm 0.00 in0.0 mm
01:10 AM 49.8°F9.9°C 45.2°F7.3°C 84% Calm Calm -- 30.10 in1019.3 mb - 0.00 in0.0 mm 0.00 in0.0 mm
01:20 AM 49.6°F9.8°C 45.0°F7.2°C 84% Calm Calm -- 30.10 in1019.3 mb - 0.00 in0.0 mm 0.00 in0.0 mm
01:30 AM 49.5°F9.7°C 44.9°F7.2°C 84% Calm Calm -- 30.11 in1019.6 mb - 0.00 in0.0 mm 0.00 in0.0 mm
01:40 AM 49.1°F9.5°C 44.5°F6.9°C 84% Calm Calm -- 30.11 in1019.6 mb - 0.00 in0.0 mm 0.00 in0.0 mm
01:50 AM 48.8°F9.3°C 44.5°F6.9°C 85% Calm Calm -- 30.11 in1019.6 mb - 0.00 in0.0 mm 0.00 in0.0 mm
02:00 AM 48.1°F8.9°C 44.1°F6.7°C 86% Calm Calm -- 30.10 in1019.3 mb - 0.00 in0.0 mm 0.00 in0.0 mm
02:10 AM 47.7°F8.7°C 44.0°F6.7°C 87% Calm Calm -- 30.10 in1019.3 mb - 0.00 in0.0 mm 0.00 in0.0 mm
02:20 AM 47.3°F8.5°C 43.6°F6.4°C 87% Calm Calm -- 30.09 in1019.0 mb - 0.00 in0.0 mm 0.00 in0.0 mm
02:30 AM 46.8°F8.2°C 43.4°F6.3°C 88% 1.2 mph NNE1.9 kmh NNE 3.5 mph5.6 kmh 30.10 in1019.3 mb - 0.00 in0.0 mm 0.00 in0.0 mm
02:40 AM 46.5°F8.1°C 43.4°F6.3°C 89% Calm Calm -- 30.10 in1019.3 mb - 0.00 in0.0 mm 0.00 in0.0 mm
02:50 AM 46.4°F8.0°C 43.6°F6.4°C 90% Calm Calm 2.3 mph3.7 kmh 30.10 in1019.3 mb - 0.00 in0.0 mm 0.00 in0.0 mm
03:00 AM 46.6°F8.1°C 43.8°F6.6°C 90% Calm Calm 2.3 mph3.7 kmh 30.10 in1019.3 mb - 0.00 in0.0 mm 0.00 in0.0 mm
03:10 AM 46.7°F8.2°C 43.9°F6.6°C 90% 1.2 mph NNE1.9 kmh NNE 2.3 mph3.7 kmh 30.10 in1019.3 mb - 0.00 in0.0 mm 0.00 in0.0 mm
03:20 AM 46.9°F8.3°C 44.1°F6.7°C 90% Calm Calm 2.3 mph3.7 kmh 30.10 in1019.3 mb - 0.00 in0.0 mm 0.00 in0.0 mm
03:30 AM 47.0°F8.3°C 43.9°F6.6°C 89% Calm Calm 2.3 mph3.7 kmh 30.11 in1019.6 mb - 0.00 in0.0 mm 0.00 in0.0 mm
03:40 AM 47.2°F8.4°C 44.1°F6.7°C 89% 4.6 mph NNE7.4 kmh NNE 5.8 mph9.3 kmh 30.11 in1019.6 mb - 0.00 in0.0 mm 0.00 in0.0 mm
03:50 AM 47.5°F8.6°C 43.8°F6.6°C 87% 3.5 mph N5.6 kmh N 4.6 mph7.4 kmh 30.11 in1019.6 mb - 0.00 in0.0 mm 0.00 in0.0 mm
04:00 AM 47.2°F8.4°C 43.6°F6.4°C 87% 4.6 mph NE7.4 kmh NE 6.9 mph11.1 kmh 30.11 in1019.6 mb - 0.00 in0.0 mm 0.00 in0.0 mm
04:10 AM 46.7°F8.2°C 43.3°F6.3°C 88% 2.3 mph NE3.7 kmh NE 3.5 mph5.6 kmh 30.12 in1020.0 mb - 0.00 in0.0 mm 0.00 in0.0 mm
04:20 AM 46.4°F8.0°C 43.3°F6.3°C 89% 4.6 mph NE7.4 kmh NE 6.9 mph11.1 kmh 30.12 in1020.0 mb - 0.00 in0.0 mm 0.00 in0.0 mm
04:30 AM 46.2°F7.9°C 43.1°F6.2°C 89% 3.5 mph NE5.6 kmh NE 5.8 mph9.3 kmh 30.12 in1020.0 mb - 0.00 in0.0 mm 0.00 in0.0 mm
04:40 AM 46.0°F7.8°C 43.3°F6.3°C 90% 3.5 mph NE5.6 kmh NE 4.6 mph7.4 kmh 30.12 in1020.0 mb - 0.00 in0.0 mm 0.00 in0.0 mm
04:50 AM 46.2°F7.9°C 43.7°F6.5°C 91% 3.5 mph NE5.6 kmh NE 5.8 mph9.3 kmh 30.13 in1020.3 mb - 0.00 in0.0 mm 0.00 in0.0 mm
05:00 AM 45.9°F7.7°C 43.1°F6.2°C 90% 4.6 mph NE7.4 kmh NE 6.9 mph11.1 kmh 30.12 in1020.0 mb - 0.00 in0.0 mm 0.00 in0.0 mm
05:10 AM 45.5°F7.5°C 42.7°F5.9°C 90% 3.5 mph ENE5.6 kmh ENE 8.1 mph13.0 kmh 30.11 in1019.6 mb - 0.00 in0.0 mm 0.00 in0.0 mm
05:20 AM 45.1°F7.3°C 42.6°F5.9°C 91% 4.6 mph NE7.4 kmh NE 11.5 mph18.5 kmh 30.12 in1020.0 mb - 0.00 in0.0 mm 0.00 in0.0 mm
05:30 AM 45.0°F7.2°C 42.2°F5.7°C 90% 3.5 mph ENE5.6 kmh ENE 4.6 mph7.4 kmh 30.12 in1020.0 mb - 0.00 in0.0 mm 0.00 in0.0 mm
05:40 AM 44.9°F7.2°C 42.4°F5.8°C 91% 3.5 mph ENE5.6 kmh ENE 8.1 mph13.0 kmh 30.12 in1020.0 mb - 0.00 in0.0 mm 0.00 in0.0 mm
05:50 AM 44.8°F7.1°C 42.3°F5.7°C 91% 4.6 mph ENE7.4 kmh ENE 4.6 mph7.4 kmh 30.12 in1020.0 mb - 0.00 in0.0 mm 0.00 in0.0 mm
06:00 AM 44.7°F7.1°C 42.2°F5.7°C 91% 3.5 mph ENE5.6 kmh ENE 4.6 mph7.4 kmh 30.11 in1019.6 mb - 0.00 in0.0 mm 0.00 in0.0 mm
06:10 AM 44.6°F7.0°C 42.1°F5.6°C 91% 3.5 mph ENE5.6 kmh ENE 6.9 mph11.1 kmh 30.12 in1020.0 mb - 0.00 in0.0 mm 0.00 in0.0 mm
06:20 AM 44.6°F7.0°C 41.8°F5.4°C 90% 4.6 mph ENE7.4 kmh ENE 9.2 mph14.8 kmh 30.11 in1019.6 mb - 0.00 in0.0 mm 0.00 in0.0 mm
06:30 AM 44.6°F7.0°C 41.8°F5.4°C 90% 8.1 mph ENE13.0 kmh ENE 11.5 mph18.5 kmh 30.12 in1020.0 mb - 0.00 in0.0 mm 0.00 in0.0 mm
06:40 AM 44.7°F7.1°C 41.9°F5.5°C 90% 4.6 mph ENE7.4 kmh ENE 6.9 mph11.1 kmh 30.12 in1020.0 mb - 0.00 in0.0 mm 0.00 in0.0 mm
06:50 AM 44.8°F7.1°C 42.0°F5.6°C 90% 5.8 mph ENE9.3 kmh ENE 8.1 mph13.0 kmh 30.12 in1020.0 mb - 0.00 in0.0 mm 0.00 in0.0 mm
07:00 AM 44.8°F7.1°C 42.0°F5.6°C 90% 5.8 mph ENE9.3 kmh ENE 8.1 mph13.0 kmh 30.12 in1020.0 mb - 0.00 in0.0 mm 0.00 in0.0 mm
07:10 AM 44.7°F7.1°C 42.0°F5.6°C 90% 6.9 mph ENE11.1 kmh ENE 11.5 mph18.5 kmh 30.11 in1019.6 mb - 0.01 in0.3 mm 0.01 in0.3 mm
07:20 AM 44.7°F7.1°C 41.7°F5.4°C 89% 5.8 mph E9.3 kmh E 10.4 mph16.7 kmh 30.11 in1019.6 mb - 0.00 in0.0 mm 0.01 in0.3 mm
07:30 AM 44.8°F7.1°C 41.8°F5.4°C 89% 4.6 mph ENE7.4 kmh ENE 6.9 mph11.1 kmh 30.11 in1019.6 mb - 0.00 in0.0 mm 0.01 in0.3 mm
07:40 AM 44.8°F7.1°C 42.0°F5.6°C 90% 8.1 mph E13.0 kmh E 10.4 mph16.7 kmh 30.12 in1020.0 mb - 0.00 in0.0 mm 0.01 in0.3 mm
07:50 AM 45.0°F7.2°C 42.2°F5.7°C 90% 4.6 mph NE7.4 kmh NE 5.8 mph9.3 kmh 30.13 in1020.3 mb - 0.00 in0.0 mm 0.01 in0.3 mm
08:00 AM 44.9°F7.2°C 41.8°F5.4°C 89% 4.6 mph ENE7.4 kmh ENE 6.9 mph11.1 kmh 30.14 in1020.7 mb - 0.00 in0.0 mm 0.01 in0.3 mm
08:10 AM 44.7°F7.1°C 41.4°F5.2°C 88% 8.1 mph E13.0 kmh E 8.1 mph13.0 kmh 30.14 in1020.7 mb - 0.00 in0.0 mm 0.01 in0.3 mm
08:20 AM 44.6°F7.0°C 41.3°F5.2°C 88% 5.8 mph NE9.3 kmh NE 9.2 mph14.8 kmh 30.12 in1020.0 mb - 0.00 in0.0 mm 0.01 in0.3 mm
08:30 AM 44.6°F7.0°C 41.3°F5.2°C 88% 4.6 mph NE7.4 kmh NE 3.5 mph5.6 kmh 30.12 in1020.0 mb - 0.00 in0.0 mm 0.01 in0.3 mm
08:40 AM 44.6°F7.0°C 41.6°F5.3°C 89% 4.6 mph E7.4 kmh E 4.6 mph7.4 kmh 30.11 in1019.6 mb - 0.00 in0.0 mm 0.01 in0.3 mm
08:50 AM 44.6°F7.0°C 41.6°F5.3°C 89% 4.6 mph ENE7.4 kmh ENE 6.9 mph11.1 kmh 30.10 in1019.3 mb - 0.00 in0.0 mm 0.01 in0.3 mm
09:00 AM 44.7°F7.1°C 41.7°F5.4°C 89% 3.5 mph ENE5.6 kmh ENE 3.5 mph5.6 kmh 30.10 in1019.3 mb - 0.00 in0.0 mm 0.01 in0.3 mm
09:10 AM 45.0°F7.2°C 42.0°F5.6°C 89% 2.3 mph NE3.7 kmh NE 3.5 mph5.6 kmh 30.12 in1020.0 mb - 0.00 in0.0 mm 0.01 in0.3 mm
09:20 AM 45.4°F7.4°C 42.3°F5.7°C 89% Calm Calm 1.2 mph1.9 kmh 30.12 in1020.0 mb - 0.00 in0.0 mm 0.01 in0.3 mm
09:30 AM 45.4°F7.4°C 42.3°F5.7°C 89% 1.2 mph ENE1.9 kmh ENE 3.5 mph5.6 kmh 30.11 in1019.6 mb - 0.00 in0.0 mm 0.01 in0.3 mm
09:40 AM 45.8°F7.7°C 42.7°F5.9°C 89% 4.6 mph ENE7.4 kmh ENE 8.1 mph13.0 kmh 30.11 in1019.6 mb - 0.00 in0.0 mm 0.01 in0.3 mm
09:50 AM 45.8°F7.7°C 42.4°F5.8°C 88% 4.6 mph ENE7.4 kmh ENE 9.2 mph14.8 kmh 30.12 in1020.0 mb - 0.00 in0.0 mm 0.01 in0.3 mm
10:00 AM 45.7°F7.6°C 42.7°F5.9°C 89% 4.6 mph NE7.4 kmh NE 8.1 mph13.0 kmh 30.13 in1020.3 mb - 0.00 in0.0 mm 0.01 in0.3 mm
10:10 AM 45.4°F7.4°C 42.6°F5.9°C 90% 3.5 mph ENE5.6 kmh ENE 6.9 mph11.1 kmh 30.11 in1019.6 mb - 0.01 in0.3 mm 0.02 in0.5 mm
10:20 AM 45.1°F7.3°C 42.6°F5.9°C 91% 4.6 mph ENE7.4 kmh ENE 4.6 mph7.4 kmh 30.10 in1019.3 mb - 0.00 in0.0 mm 0.02 in0.5 mm
10:30 AM 45.1°F7.3°C 42.9°F6.1°C 92% 3.5 mph NE5.6 kmh NE 3.5 mph5.6 kmh 30.11 in1019.6 mb - 0.00 in0.0 mm 0.02 in0.5 mm
10:40 AM 45.0°F7.2°C 42.8°F6.0°C 92% 5.8 mph E9.3 kmh E 8.1 mph13.0 kmh 30.11 in1019.6 mb - 0.00 in0.0 mm 0.02 in0.5 mm
10:50 AM 44.8°F7.1°C 42.6°F5.9°C 92% 3.5 mph E5.6 kmh E 5.8 mph9.3 kmh 30.10 in1019.3 mb - 0.00 in0.0 mm 0.02 in0.5 mm
11:00 AM 44.4°F6.9°C 42.2°F5.7°C 92% 6.9 mph ENE11.1 kmh ENE 8.1 mph13.0 kmh 30.08 in1018.6 mb - 0.02 in0.5 mm 0.03 in0.8 mm
11:10 AM 44.0°F6.7°C 42.1°F5.6°C 93% 5.8 mph NE9.3 kmh NE 9.2 mph14.8 kmh 30.09 in1019.0 mb - 0.00 in0.0 mm 0.03 in0.8 mm
11:20 AM 43.7°F6.5°C 41.8°F5.4°C 93% 8.1 mph NE13.0 kmh NE 11.5 mph18.5 kmh 30.11 in1019.6 mb - 0.02 in0.5 mm 0.05 in1.3 mm
11:30 AM 43.3°F6.3°C 41.7°F5.4°C 94% 4.6 mph NE7.4 kmh NE 6.9 mph11.1 kmh 30.11 in1019.6 mb - 0.02 in0.5 mm 0.06 in1.5 mm
11:40 AM 43.1°F6.2°C 41.2°F5.1°C 93% 5.8 mph ENE9.3 kmh ENE 6.9 mph11.1 kmh 30.09 in1019.0 mb - 0.02 in0.5 mm 0.08 in2.0 mm
11:50 AM 43.0°F6.1°C 41.1°F5.1°C 93% 9.2 mph ENE14.8 kmh ENE 12.7 mph20.4 kmh 30.08 in1018.6 mb - 0.01 in0.3 mm 0.09 in2.3 mm
12:00 PM 43.1°F6.2°C 41.2°F5.1°C 93% 5.8 mph ENE9.3 kmh ENE 6.9 mph11.1 kmh 30.07 in1018.3 mb - 0.00 in0.0 mm 0.09 in2.3 mm
12:10 PM 43.1°F6.2°C 41.2°F5.1°C 93% 3.5 mph ENE5.6 kmh ENE 3.5 mph5.6 kmh 30.07 in1018.3 mb - 0.01 in0.3 mm 0.09 in2.3 mm
12:20 PM 43.2°F6.2°C 41.6°F5.3°C 94% 6.9 mph NE11.1 kmh NE 10.4 mph16.7 kmh 30.06 in1017.9 mb - 0.02 in0.5 mm 0.11 in2.8 mm
12:30 PM 43.1°F6.2°C 41.2°F5.1°C 93% 3.5 mph ENE5.6 kmh ENE 9.2 mph14.8 kmh 30.06 in1017.9 mb - 0.03 in0.8 mm 0.13 in3.3 mm
12:40 PM 43.3°F6.3°C 41.7°F5.4°C 94% 2.3 mph E3.7 kmh E 3.5 mph5.6 kmh 30.04 in1017.3 mb - 0.05 in1.3 mm 0.18 in4.6 mm
12:50 PM 43.5°F6.4°C 41.9°F5.5°C 94% 2.3 mph E3.7 kmh E 4.6 mph7.4 kmh 30.04 in1017.3 mb - 0.03 in0.8 mm 0.21 in5.3 mm
01:00 PM 43.6°F6.4°C 42.0°F5.6°C 94% 3.5 mph E5.6 kmh E 5.8 mph9.3 kmh 30.03 in1016.9 mb - 0.03 in0.8 mm 0.24 in6.1 mm
01:10 PM 43.7°F6.5°C 42.1°F5.6°C 94% 3.5 mph ENE5.6 kmh ENE 6.9 mph11.1 kmh 30.02 in1016.6 mb - 0.02 in0.5 mm 0.26 in6.6 mm
01:20 PM 43.7°F6.5°C 42.1°F5.6°C 94% 2.3 mph E3.7 kmh E 3.5 mph5.6 kmh 30.02 in1016.6 mb - 0.03 in0.8 mm 0.29 in7.4 mm
01:30 PM 43.6°F6.4°C 42.0°F5.6°C 94% 2.3 mph ENE3.7 kmh ENE 3.5 mph5.6 kmh 30.02 in1016.6 mb - 0.05 in1.3 mm 0.33 in8.4 mm
01:40 PM 43.6°F6.4°C 42.0°F5.6°C 94% 3.5 mph ENE5.6 kmh ENE 6.9 mph11.1 kmh 30.01 in1016.3 mb - 0.05 in1.3 mm 0.38 in9.7 mm
01:50 PM 43.6°F6.4°C 42.0°F5.6°C 94% 3.5 mph NE5.6 kmh NE 3.5 mph5.6 kmh 30.01 in1016.3 mb - 0.03 in0.8 mm 0.40 in10.2 mm
02:00 PM 43.6°F6.4°C 42.0°F5.6°C 94% 1.2 mph ENE1.9 kmh ENE 3.5 mph5.6 kmh 30.01 in1016.3 mb - 0.03 in0.8 mm 0.43 in10.9 mm
02:10 PM 43.6°F6.4°C 42.0°F5.6°C 94% 1.2 mph ENE1.9 kmh ENE 2.3 mph3.7 kmh 30.02 in1016.6 mb - 0.06 in1.5 mm 0.49 in12.4 mm
02:20 PM 43.6°F6.4°C 42.0°F5.6°C 94% 3.5 mph ENE5.6 kmh ENE 6.9 mph11.1 kmh 29.98 in1015.2 mb - 0.06 in1.5 mm 0.54 in13.7 mm
02:30 PM 43.5°F6.4°C 41.9°F5.5°C 94% 4.6 mph E7.4 kmh E 6.9 mph11.1 kmh 29.95 in1014.2 mb - 0.02 in0.5 mm 0.55 in14.0 mm
02:40 PM 43.5°F6.4°C 42.2°F5.7°C 95% 4.6 mph NE7.4 kmh NE 6.9 mph11.1 kmh 29.97 in1014.9 mb - 0.02 in0.5 mm 0.57 in14.5 mm
02:50 PM 43.6°F6.4°C 42.3°F5.7°C 95% 2.3 mph NE3.7 kmh NE 3.5 mph5.6 kmh 29.97 in1014.9 mb - 0.01 in0.3 mm 0.58 in14.7 mm
03:00 PM 43.7°F6.5°C 42.4°F5.8°C 95% 3.5 mph NE5.6 kmh NE 6.9 mph11.1 kmh 29.96 in1014.6 mb - 0.00 in0.0 mm 0.58 in14.7 mm
03:10 PM 43.5°F6.4°C 41.9°F5.5°C 94% 4.6 mph ENE7.4 kmh ENE 6.9 mph11.1 kmh 29.97 in1014.9 mb - 0.00 in0.0 mm 0.58 in14.7 mm
03:20 PM 43.7°F6.5°C 42.1°F5.6°C 94% 6.9 mph NE11.1 kmh NE 9.2 mph14.8 kmh 29.95 in1014.2 mb - 0.00 in0.0 mm 0.58 in14.7 mm
03:30 PM 43.6°F6.4°C 42.0°F5.6°C 94% 3.5 mph NE5.6 kmh NE 5.8 mph9.3 kmh 29.96 in1014.6 mb - 0.00 in0.0 mm 0.58 in14.7 mm
03:40 PM 43.4°F6.3°C 41.8°F5.4°C 94% 1.2 mph NE1.9 kmh NE 3.5 mph5.6 kmh 29.94 in1013.9 mb - 0.02 in0.5 mm 0.59 in15.0 mm
03:50 PM 43.4°F6.3°C 41.8°F5.4°C 94% 5.8 mph E9.3 kmh E 6.9 mph11.1 kmh 29.92 in1013.2 mb - 0.00 in0.0 mm 0.59 in15.0 mm
04:00 PM 43.4°F6.3°C 41.8°F5.4°C 94% 2.3 mph E3.7 kmh E 4.6 mph7.4 kmh 29.91 in1012.9 mb - 0.01 in0.3 mm 0.60 in15.2 mm
04:10 PM 43.5°F6.4°C 41.9°F5.5°C 94% Calm Calm -- 29.92 in1013.2 mb - 0.00 in0.0 mm 0.60 in15.2 mm
04:20 PM 43.8°F6.6°C 42.5°F5.8°C 95% 3.5 mph NE5.6 kmh NE 3.5 mph5.6 kmh 29.92 in1013.2 mb - 0.02 in0.5 mm 0.61 in15.5 mm
04:30 PM 44.0°F6.7°C 42.4°F5.8°C 94% 1.2 mph NE1.9 kmh NE 4.6 mph7.4 kmh 29.91 in1012.9 mb - 0.02 in0.5 mm 0.64 in16.3 mm
04:40 PM 44.1°F6.7°C 42.5°F5.8°C 94% 3.5 mph NE5.6 kmh NE 3.5 mph5.6 kmh 29.89 in1012.2 mb - 0.02 in0.5 mm 0.65 in16.5 mm
04:50 PM 44.0°F6.7°C 42.4°F5.8°C 94% 4.6 mph NE7.4 kmh NE 6.9 mph11.1 kmh 29.90 in1012.5 mb - 0.00 in0.0 mm 0.65 in16.5 mm
05:00 PM 44.0°F6.7°C 42.4°F5.8°C 94% 5.8 mph NE9.3 kmh NE 6.9 mph11.1 kmh 29.90 in1012.5 mb - 0.01 in0.3 mm 0.66 in16.8 mm
05:10 PM 43.6°F6.4°C 42.0°F5.6°C 94% 4.6 mph NE7.4 kmh NE 8.1 mph13.0 kmh 29.91 in1012.9 mb - 0.00 in0.0 mm 0.66 in16.8 mm
05:20 PM 43.3°F6.3°C 41.7°F5.4°C 94% 6.9 mph ENE11.1 kmh ENE 9.2 mph14.8 kmh 29.89 in1012.2 mb - 0.04 in1.0 mm 0.70 in17.8 mm
05:30 PM 43.4°F6.3°C 41.8°F5.4°C 94% 3.5 mph NE5.6 kmh NE 6.9 mph11.1 kmh 29.90 in1012.5 mb - 0.01 in0.3 mm 0.70 in17.8 mm
05:40 PM 43.0°F6.1°C 41.4°F5.2°C 94% 4.6 mph NE7.4 kmh NE 5.8 mph9.3 kmh 29.89 in1012.2 mb - 0.00 in0.0 mm 0.70 in17.8 mm
05:50 PM 42.9°F6.1°C 41.3°F5.2°C 94% 5.8 mph NE9.3 kmh NE 5.8 mph9.3 kmh 29.88 in1011.9 mb - 0.00 in0.0 mm 0.70 in17.8 mm
06:00 PM 42.8°F6.0°C 41.4°F5.2°C 95% 3.5 mph NE5.6 kmh NE 4.6 mph7.4 kmh 29.88 in1011.9 mb - 0.02 in0.5 mm 0.72 in18.3 mm
06:10 PM 42.8°F6.0°C 41.5°F5.3°C 95% 5.8 mph NE9.3 kmh NE 6.9 mph11.1 kmh 29.88 in1011.9 mb - 0.00 in0.0 mm 0.72 in18.3 mm
06:20 PM 42.8°F6.0°C 41.5°F5.3°C 95% 8.1 mph NE13.0 kmh NE 11.5 mph18.5 kmh 29.89 in1012.2 mb - 0.02 in0.5 mm 0.74 in18.8 mm
06:30 PM 42.6°F5.9°C 41.3°F5.2°C 95% 9.2 mph NE14.8 kmh NE 15.0 mph24.1 kmh 29.88 in1011.9 mb - 0.02 in0.5 mm 0.76 in19.3 mm
06:40 PM 42.2°F5.7°C 40.9°F4.9°C 95% 10.4 mph NE16.7 kmh NE 13.8 mph22.2 kmh 29.90 in1012.5 mb - 0.06 in1.5 mm 0.80 in20.3 mm
06:50 PM 41.9°F5.5°C 40.6°F4.8°C 95% 5.8 mph E9.3 kmh E 11.5 mph18.5 kmh 29.86 in1011.2 mb - 0.04 in1.0 mm 0.84 in21.3 mm
07:00 PM 41.9°F5.5°C 40.6°F4.8°C 95% 2.3 mph E3.7 kmh E 3.5 mph5.6 kmh 29.88 in1011.9 mb - 0.09 in2.3 mm 0.93 in23.6 mm
07:10 PM 42.2°F5.7°C 40.9°F4.9°C 95% 4.6 mph NE7.4 kmh NE 10.4 mph16.7 kmh 29.89 in1012.2 mb - 0.04 in1.0 mm 0.97 in24.6 mm
07:20 PM 42.6°F5.9°C 41.3°F5.2°C 95% 5.8 mph E9.3 kmh E 8.1 mph13.0 kmh 29.91 in1012.9 mb - 0.04 in1.0 mm 1.01 in25.7 mm
07:30 PM 42.4°F5.8°C 41.1°F5.1°C 95% 5.8 mph NE9.3 kmh NE 11.5 mph18.5 kmh 29.92 in1013.2 mb - 0.17 in4.3 mm 1.16 in29.5 mm
07:40 PM 42.2°F5.7°C 40.9°F4.9°C 95% 5.8 mph NE9.3 kmh NE 6.9 mph11.1 kmh 29.91 in1012.9 mb - 0.05 in1.3 mm 1.20 in30.5 mm
07:50 PM 42.1°F5.6°C 40.8°F4.9°C 95% 6.9 mph NE11.1 kmh NE 9.2 mph14.8 kmh 29.88 in1011.9 mb - 0.02 in0.5 mm 1.21 in30.7 mm
08:00 PM 42.1°F5.6°C 40.8°F4.9°C 95% 4.6 mph NE7.4 kmh NE 4.6 mph7.4 kmh 29.88 in1011.9 mb - 0.01 in0.3 mm 1.22 in31.0 mm
08:10 PM 42.2°F5.7°C 40.9°F4.9°C 95% 5.8 mph ENE9.3 kmh ENE 8.1 mph13.0 kmh 29.86 in1011.2 mb - 0.01 in0.3 mm 1.23 in31.2 mm
08:20 PM 42.5°F5.8°C 41.2°F5.1°C 95% 3.5 mph ENE5.6 kmh ENE 4.6 mph7.4 kmh 29.86 in1011.2 mb - 0.00 in0.0 mm 1.23 in31.2 mm
08:30 PM 42.8°F6.0°C 41.5°F5.3°C 95% 3.5 mph NE5.6 kmh NE 6.9 mph11.1 kmh 29.85 in1010.8 mb - 0.00 in0.0 mm 1.23 in31.2 mm
08:40 PM 43.1°F6.2°C 41.7°F5.4°C 95% 1.2 mph NE1.9 kmh NE 2.3 mph3.7 kmh 29.83 in1010.2 mb - 0.00 in0.0 mm 1.23 in31.2 mm
08:50 PM 43.3°F6.3°C 42.0°F5.6°C 95% Calm Calm -- 29.83 in1010.2 mb - 0.00 in0.0 mm 1.23 in31.2 mm
09:00 PM 43.6°F6.4°C 42.5°F5.8°C 96% 1.2 mph NE1.9 kmh NE 1.2 mph1.9 kmh 29.82 in1009.8 mb - 0.00 in0.0 mm 1.23 in31.2 mm
09:10 PM 43.8°F6.6°C 42.5°F5.8°C 95% Calm Calm -- 29.82 in1009.8 mb - 0.00 in0.0 mm 1.23 in31.2 mm
09:20 PM 44.0°F6.7°C 42.7°F5.9°C 95% Calm Calm -- 29.82 in1009.8 mb - 0.00 in0.0 mm 1.23 in31.2 mm
09:30 PM 44.3°F6.8°C 43.0°F6.1°C 95% Calm Calm -- 29.81 in1009.5 mb - 0.00 in0.0 mm 1.23 in31.2 mm
09:40 PM 44.6°F7.0°C 43.3°F6.3°C 95% Calm Calm -- 29.80 in1009.1 mb - 0.00 in0.0 mm 1.23 in31.2 mm
09:50 PM 44.7°F7.1°C 43.6°F6.4°C 96% Calm Calm -- 29.80 in1009.1 mb - 0.00 in0.0 mm 1.23 in31.2 mm
10:00 PM 44.8°F7.1°C 43.7°F6.5°C 96% Calm Calm -- 29.82 in1009.8 mb - 0.00 in0.0 mm 1.23 in31.2 mm
10:10 PM 44.8°F7.1°C 43.7°F6.5°C 96% Calm Calm 2.3 mph3.7 kmh 29.82 in1009.8 mb - 0.00 in0.0 mm 1.23 in31.2 mm
10:20 PM 44.9°F7.2°C 43.8°F6.6°C 96% Calm Calm -- 29.82 in1009.8 mb - 0.00 in0.0 mm 1.23 in31.2 mm
10:30 PM 44.5°F6.9°C 43.2°F6.2°C 95% 3.5 mph N5.6 kmh N 6.9 mph11.1 kmh 29.81 in1009.5 mb - 0.00 in0.0 mm 1.23 in31.2 mm
10:40 PM 44.1°F6.7°C 42.7°F5.9°C 95% 1.2 mph N1.9 kmh N 4.6 mph7.4 kmh 29.82 in1009.8 mb - 0.00 in0.0 mm 1.23 in31.2 mm
10:50 PM 43.8°F6.6°C 42.5°F5.8°C 95% Calm Calm 3.5 mph5.6 kmh 29.83 in1010.2 mb - 0.01 in0.3 mm 1.24 in31.5 mm
11:00 PM 43.5°F6.4°C 42.2°F5.7°C 95% Calm Calm -- 29.82 in1009.8 mb - 0.02 in0.5 mm 1.25 in31.8 mm
11:10 PM 43.3°F6.3°C 42.0°F5.6°C 95% Calm Calm -- 29.80 in1009.1 mb - 0.00 in0.0 mm 1.25 in31.8 mm
11:20 PM 43.3°F6.3°C 42.0°F5.6°C 95% Calm Calm -- 29.79 in1008.8 mb - 0.01 in0.3 mm 1.26 in32.0 mm
11:30 PM 43.3°F6.3°C 42.0°F5.6°C 95% Calm Calm -- 29.77 in1008.1 mb - 0.00 in0.0 mm 1.26 in32.0 mm
11:40 PM 43.5°F6.4°C 42.4°F5.8°C 96% 1.2 mph N1.9 kmh N 3.5 mph5.6 kmh 29.79 in1008.8 mb - 0.00 in0.0 mm 1.26 in32.0 mm
11:50 PM 43.5°F6.4°C 42.5°F5.8°C 96% 1.2 mph N1.9 kmh N 3.5 mph5.6 kmh 29.78 in1008.5 mb - 0.01 in0.3 mm 1.27 in32.3 mm